sensor_id;sensor_type;location;lat;lon;timestamp;P1;durP1;ratioP1;P2;durP2;ratioP2
65463;SDS011;52063;45.110;9.870;2023-04-23T00:00:59;2.58;;;1.80;;
65463;SDS011;52063;45.110;9.870;2023-04-23T00:03:27;1.88;;;1.77;;
65463;SDS011;52063;45.110;9.870;2023-04-23T00:05:57;2.05;;;1.90;;
65463;SDS011;52063;45.110;9.870;2023-04-23T00:08:23;2.10;;;1.90;;
65463;SDS011;52063;45.110;9.870;2023-04-23T00:10:49;2.58;;;1.58;;
65463;SDS011;52063;45.110;9.870;2023-04-23T00:13:15;1.90;;;1.80;;
65463;SDS011;52063;45.110;9.870;2023-04-23T00:15:41;2.43;;;1.97;;
65463;SDS011;52063;45.110;9.870;2023-04-23T00:18:06;2.58;;;2.17;;
65463;SDS011;52063;45.110;9.870;2023-04-23T00:20:32;2.00;;;1.90;;
65463;SDS011;52063;45.110;9.870;2023-04-23T00:22:59;2.05;;;1.95;;
65463;SDS011;52063;45.110;9.870;2023-04-23T00:25:25;2.22;;;2.03;;
65463;SDS011;52063;45.110;9.870;2023-04-23T00:27:50;2.30;;;2.10;;
65463;SDS011;52063;45.110;9.870;2023-04-23T00:30:16;2.40;;;2.23;;
65463;SDS011;52063;45.110;9.870;2023-04-23T00:32:42;1.90;;;1.80;;
65463;SDS011;52063;45.110;9.870;2023-04-23T00:35:08;2.30;;;2.08;;
65463;SDS011;52063;45.110;9.870;2023-04-23T00:37:34;2.03;;;1.90;;
65463;SDS011;52063;45.110;9.870;2023-04-23T00:40:00;1.90;;;1.80;;
65463;SDS011;52063;45.110;9.870;2023-04-23T00:42:26;2.15;;;2.05;;
65463;SDS011;52063;45.110;9.870;2023-04-23T00:44:52;2.07;;;1.73;;
65463;SDS011;52063;45.110;9.870;2023-04-23T00:47:18;1.83;;;1.73;;
65463;SDS011;52063;45.110;9.870;2023-04-23T00:49:44;2.25;;;2.08;;
65463;SDS011;52063;45.110;9.870;2023-04-23T00:52:10;2.07;;;1.97;;
65463;SDS011;52063;45.110;9.870;2023-04-23T00:54:35;1.90;;;1.80;;
65463;SDS011;52063;45.110;9.870;2023-04-23T00:57:01;2.42;;;2.17;;
65463;SDS011;52063;45.110;9.870;2023-04-23T00:59:27;1.70;;;1.60;;
65463;SDS011;52063;45.110;9.870;2023-04-23T01:01:53;2.10;;;1.90;;
65463;SDS011;52063;45.110;9.870;2023-04-23T01:04:20;2.00;;;1.90;;
65463;SDS011;52063;45.110;9.870;2023-04-23T01:06:47;2.00;;;1.90;;
65463;SDS011;52063;45.110;9.870;2023-04-23T01:09:12;2.30;;;2.08;;
65463;SDS011;52063;45.110;9.870;2023-04-23T01:11:39;1.80;;;1.70;;
65463;SDS011;52063;45.110;9.870;2023-04-23T01:14:07;1.80;;;1.70;;
65463;SDS011;52063;45.110;9.870;2023-04-23T01:16:33;1.95;;;1.85;;
65463;SDS011;52063;45.110;9.870;2023-04-23T01:19:00;2.10;;;1.90;;
65463;SDS011;52063;45.110;9.870;2023-04-23T01:21:27;1.70;;;1.60;;
65463;SDS011;52063;45.110;9.870;2023-04-23T01:23:53;2.20;;;2.00;;
65463;SDS011;52063;45.110;9.870;2023-04-23T01:26:18;2.10;;;1.90;;
65463;SDS011;52063;45.110;9.870;2023-04-23T01:28:44;2.00;;;1.90;;
65463;SDS011;52063;45.110;9.870;2023-04-23T01:31:10;1.70;;;1.60;;
65463;SDS011;52063;45.110;9.870;2023-04-23T01:33:39;2.00;;;1.80;;
65463;SDS011;52063;45.110;9.870;2023-04-23T01:36:06;2.22;;;2.13;;
65463;SDS011;52063;45.110;9.870;2023-04-23T01:38:32;2.00;;;1.90;;
65463;SDS011;52063;45.110;9.870;2023-04-23T01:40:58;2.13;;;2.03;;
65463;SDS011;52063;45.110;9.870;2023-04-23T01:43:23;1.90;;;1.80;;
65463;SDS011;52063;45.110;9.870;2023-04-23T01:45:49;1.50;;;1.40;;
65463;SDS011;52063;45.110;9.870;2023-04-23T01:48:15;1.88;;;1.77;;
65463;SDS011;52063;45.110;9.870;2023-04-23T01:50:41;2.25;;;2.00;;
65463;SDS011;52063;45.110;9.870;2023-04-23T01:53:06;1.73;;;1.63;;
65463;SDS011;52063;45.110;9.870;2023-04-23T01:55:33;2.17;;;1.98;;
65463;SDS011;52063;45.110;9.870;2023-04-23T01:57:58;1.60;;;1.50;;
65463;SDS011;52063;45.110;9.870;2023-04-23T02:00:24;1.80;;;1.70;;
65463;SDS011;52063;45.110;9.870;2023-04-23T02:02:50;2.13;;;1.93;;
65463;SDS011;52063;45.110;9.870;2023-04-23T02:05:18;1.90;;;1.80;;
65463;SDS011;52063;45.110;9.870;2023-04-23T02:07:44;1.98;;;1.88;;
65463;SDS011;52063;45.110;9.870;2023-04-23T02:10:12;2.15;;;2.03;;
65463;SDS011;52063;45.110;9.870;2023-04-23T02:12:38;3.03;;;1.53;;
65463;SDS011;52063;45.110;9.870;2023-04-23T02:15:04;3.15;;;2.25;;
65463;SDS011;52063;45.110;9.870;2023-04-23T02:17:31;2.25;;;2.05;;
65463;SDS011;52063;45.110;9.870;2023-04-23T02:19:57;1.90;;;1.80;;
65463;SDS011;52063;45.110;9.870;2023-04-23T02:22:23;1.70;;;1.60;;
65463;SDS011;52063;45.110;9.870;2023-04-23T02:24:49;2.00;;;1.80;;
65463;SDS011;52063;45.110;9.870;2023-04-23T02:27:16;2.00;;;1.90;;
65463;SDS011;52063;45.110;9.870;2023-04-23T02:29:41;1.90;;;1.67;;
65463;SDS011;52063;45.110;9.870;2023-04-23T02:32:07;1.73;;;1.63;;
65463;SDS011;52063;45.110;9.870;2023-04-23T02:34:32;2.20;;;2.00;;
65463;SDS011;52063;45.110;9.870;2023-04-23T02:36:58;1.90;;;1.80;;
65463;SDS011;52063;45.110;9.870;2023-04-23T02:39:24;1.70;;;1.60;;
65463;SDS011;52063;45.110;9.870;2023-04-23T02:41:50;2.30;;;2.10;;
65463;SDS011;52063;45.110;9.870;2023-04-23T02:44:15;2.10;;;2.00;;
65463;SDS011;52063;45.110;9.870;2023-04-23T02:46:41;1.90;;;1.80;;
65463;SDS011;52063;45.110;9.870;2023-04-23T02:49:06;2.37;;;2.17;;
65463;SDS011;52063;45.110;9.870;2023-04-23T02:51:31;1.80;;;1.70;;
65463;SDS011;52063;45.110;9.870;2023-04-23T02:53:57;1.67;;;1.57;;
65463;SDS011;52063;45.110;9.870;2023-04-23T02:56:23;2.08;;;1.92;;
65463;SDS011;52063;45.110;9.870;2023-04-23T02:58:49;2.13;;;1.67;;
65463;SDS011;52063;45.110;9.870;2023-04-23T03:01:15;1.80;;;1.70;;
65463;SDS011;52063;45.110;9.870;2023-04-23T03:03:40;2.35;;;1.90;;
65463;SDS011;52063;45.110;9.870;2023-04-23T03:06:06;1.98;;;1.75;;
65463;SDS011;52063;45.110;9.870;2023-04-23T03:08:32;1.70;;;1.60;;
65463;SDS011;52063;45.110;9.870;2023-04-23T03:10:58;2.28;;;2.08;;
65463;SDS011;52063;45.110;9.870;2023-04-23T03:13:24;1.90;;;1.80;;
65463;SDS011;52063;45.110;9.870;2023-04-23T03:15:51;2.20;;;2.00;;
65463;SDS011;52063;45.110;9.870;2023-04-23T03:18:19;1.70;;;1.60;;
65463;SDS011;52063;45.110;9.870;2023-04-23T03:20:49;1.88;;;1.77;;
65463;SDS011;52063;45.110;9.870;2023-04-23T03:23:15;1.73;;;1.63;;
65463;SDS011;52063;45.110;9.870;2023-04-23T03:25:42;1.98;;;1.70;;
65463;SDS011;52063;45.110;9.870;2023-04-23T03:28:07;2.33;;;1.80;;
65463;SDS011;52063;45.110;9.870;2023-04-23T03:30:33;2.10;;;2.00;;
65463;SDS011;52063;45.110;9.870;2023-04-23T03:32:59;2.00;;;1.90;;
65463;SDS011;52063;45.110;9.870;2023-04-23T03:35:26;2.20;;;2.00;;
65463;SDS011;52063;45.110;9.870;2023-04-23T03:37:53;2.08;;;1.90;;
65463;SDS011;52063;45.110;9.870;2023-04-23T03:40:20;2.10;;;2.00;;
65463;SDS011;52063;45.110;9.870;2023-04-23T03:42:48;1.80;;;1.70;;
65463;SDS011;52063;45.110;9.870;2023-04-23T03:45:17;1.80;;;1.70;;
65463;SDS011;52063;45.110;9.870;2023-04-23T03:47:43;1.60;;;1.50;;
65463;SDS011;52063;45.110;9.870;2023-04-23T03:50:09;1.60;;;1.50;;
65463;SDS011;52063;45.110;9.870;2023-04-23T03:52:37;1.80;;;1.70;;
65463;SDS011;52063;45.110;9.870;2023-04-23T03:55:03;2.50;;;1.80;;
65463;SDS011;52063;45.110;9.870;2023-04-23T03:57:36;2.20;;;2.00;;
65463;SDS011;52063;45.110;9.870;2023-04-23T04:00:17;2.40;;;1.73;;
65463;SDS011;52063;45.110;9.870;2023-04-23T04:02:43;2.30;;;2.00;;
65463;SDS011;52063;45.110;9.870;2023-04-23T04:05:08;2.27;;;2.10;;
65463;SDS011;52063;45.110;9.870;2023-04-23T04:07:37;1.75;;;1.65;;
65463;SDS011;52063;45.110;9.870;2023-04-23T04:10:04;1.95;;;1.85;;
65463;SDS011;52063;45.110;9.870;2023-04-23T04:12:30;1.80;;;1.57;;
65463;SDS011;52063;45.110;9.870;2023-04-23T04:14:55;3.13;;;1.75;;
65463;SDS011;52063;45.110;9.870;2023-04-23T04:17:20;2.10;;;1.57;;
65463;SDS011;52063;45.110;9.870;2023-04-23T04:19:46;2.03;;;1.57;;
65463;SDS011;52063;45.110;9.870;2023-04-23T04:22:12;1.80;;;1.70;;
65463;SDS011;52063;45.110;9.870;2023-04-23T04:24:37;1.90;;;1.70;;
65463;SDS011;52063;45.110;9.870;2023-04-23T04:27:02;2.07;;;1.97;;
65463;SDS011;52063;45.110;9.870;2023-04-23T04:29:29;1.80;;;1.70;;
65463;SDS011;52063;45.110;9.870;2023-04-23T04:31:55;1.60;;;1.50;;
65463;SDS011;52063;45.110;9.870;2023-04-23T04:34:20;2.10;;;1.90;;
65463;SDS011;52063;45.110;9.870;2023-04-23T04:36:47;1.80;;;1.70;;
65463;SDS011;52063;45.110;9.870;2023-04-23T04:39:12;1.58;;;1.48;;
65463;SDS011;52063;45.110;9.870;2023-04-23T04:41:39;1.77;;;1.67;;
65463;SDS011;52063;45.110;9.870;2023-04-23T04:44:05;2.20;;;2.00;;
65463;SDS011;52063;45.110;9.870;2023-04-23T04:46:32;2.85;;;2.08;;
65463;SDS011;52063;45.110;9.870;2023-04-23T04:48:59;2.13;;;1.92;;
65463;SDS011;52063;45.110;9.870;2023-04-23T04:51:24;1.90;;;1.80;;
65463;SDS011;52063;45.110;9.870;2023-04-23T04:53:51;1.88;;;1.77;;
65463;SDS011;52063;45.110;9.870;2023-04-23T04:56:16;2.25;;;2.10;;
65463;SDS011;52063;45.110;9.870;2023-04-23T04:58:42;1.80;;;1.70;;
65463;SDS011;52063;45.110;9.870;2023-04-23T05:01:08;2.40;;;2.20;;
65463;SDS011;52063;45.110;9.870;2023-04-23T05:03:33;2.17;;;1.97;;
65463;SDS011;52063;45.110;9.870;2023-04-23T05:05:59;2.30;;;2.10;;
65463;SDS011;52063;45.110;9.870;2023-04-23T05:08:24;2.20;;;2.10;;
65463;SDS011;52063;45.110;9.870;2023-04-23T05:10:49;1.90;;;1.77;;
65463;SDS011;52063;45.110;9.870;2023-04-23T05:13:15;2.43;;;2.23;;
65463;SDS011;52063;45.110;9.870;2023-04-23T05:15:41;2.22;;;2.03;;
65463;SDS011;52063;45.110;9.870;2023-04-23T05:18:08;2.20;;;2.00;;
65463;SDS011;52063;45.110;9.870;2023-04-23T05:20:34;2.20;;;2.00;;
65463;SDS011;52063;45.110;9.870;2023-04-23T05:23:00;1.90;;;1.80;;
65463;SDS011;52063;45.110;9.870;2023-04-23T05:25:27;2.13;;;1.95;;
65463;SDS011;52063;45.110;9.870;2023-04-23T05:27:56;2.00;;;1.90;;
65463;SDS011;52063;45.110;9.870;2023-04-23T05:30:22;2.40;;;2.20;;
65463;SDS011;52063;45.110;9.870;2023-04-23T05:32:48;2.10;;;2.00;;
65463;SDS011;52063;45.110;9.870;2023-04-23T05:35:13;2.28;;;2.08;;
65463;SDS011;52063;45.110;9.870;2023-04-23T05:37:39;2.47;;;2.27;;
65463;SDS011;52063;45.110;9.870;2023-04-23T05:40:05;2.20;;;2.00;;
65463;SDS011;52063;45.110;9.870;2023-04-23T05:42:31;2.57;;;2.37;;
65463;SDS011;52063;45.110;9.870;2023-04-23T05:44:58;2.30;;;2.10;;
65463;SDS011;52063;45.110;9.870;2023-04-23T05:47:24;2.60;;;2.40;;
65463;SDS011;52063;45.110;9.870;2023-04-23T05:49:49;2.25;;;2.13;;
65463;SDS011;52063;45.110;9.870;2023-04-23T05:52:14;4.37;;;2.57;;
65463;SDS011;52063;45.110;9.870;2023-04-23T05:54:40;2.60;;;2.40;;
65463;SDS011;52063;45.110;9.870;2023-04-23T05:57:06;5.88;;;2.78;;
65463;SDS011;52063;45.110;9.870;2023-04-23T05:59:32;2.50;;;2.40;;
65463;SDS011;52063;45.110;9.870;2023-04-23T06:01:57;2.90;;;2.60;;
65463;SDS011;52063;45.110;9.870;2023-04-23T06:04:23;3.20;;;2.10;;
65463;SDS011;52063;45.110;9.870;2023-04-23T06:06:48;2.25;;;2.05;;
65463;SDS011;52063;45.110;9.870;2023-04-23T06:09:14;2.77;;;2.57;;
65463;SDS011;52063;45.110;9.870;2023-04-23T06:11:39;2.67;;;2.47;;
65463;SDS011;52063;45.110;9.870;2023-04-23T06:14:05;4.07;;;2.40;;
65463;SDS011;52063;45.110;9.870;2023-04-23T06:16:30;2.42;;;2.22;;
65463;SDS011;52063;45.110;9.870;2023-04-23T06:18:56;2.77;;;2.50;;
65463;SDS011;52063;45.110;9.870;2023-04-23T06:21:21;2.57;;;2.37;;
65463;SDS011;52063;45.110;9.870;2023-04-23T06:23:47;2.42;;;2.28;;
65463;SDS011;52063;45.110;9.870;2023-04-23T06:26:13;2.60;;;2.40;;
65463;SDS011;52063;45.110;9.870;2023-04-23T06:28:40;2.53;;;2.33;;
65463;SDS011;52063;45.110;9.870;2023-04-23T06:31:28;2.20;;;2.10;;
65463;SDS011;52063;45.110;9.870;2023-04-23T06:33:53;3.97;;;2.40;;
65463;SDS011;52063;45.110;9.870;2023-04-23T06:36:18;2.83;;;2.63;;
65463;SDS011;52063;45.110;9.870;2023-04-23T06:38:44;2.40;;;2.20;;
65463;SDS011;52063;45.110;9.870;2023-04-23T06:41:10;2.00;;;1.90;;
65463;SDS011;52063;45.110;9.870;2023-04-23T06:43:36;2.55;;;2.35;;
65463;SDS011;52063;45.110;9.870;2023-04-23T06:46:28;2.17;;;2.08;;
65463;SDS011;52063;45.110;9.870;2023-04-23T06:48:54;2.57;;;2.37;;
65463;SDS011;52063;45.110;9.870;2023-04-23T06:51:19;2.20;;;2.00;;
65463;SDS011;52063;45.110;9.870;2023-04-23T06:53:45;2.33;;;2.13;;
65463;SDS011;52063;45.110;9.870;2023-04-23T06:56:11;2.40;;;2.20;;
65463;SDS011;52063;45.110;9.870;2023-04-23T06:58:36;2.50;;;2.30;;
65463;SDS011;52063;45.110;9.870;2023-04-23T07:01:11;2.22;;;2.08;;
65463;SDS011;52063;45.110;9.870;2023-04-23T07:03:37;2.67;;;2.47;;
65463;SDS011;52063;45.110;9.870;2023-04-23T07:06:02;2.30;;;2.00;;
65463;SDS011;52063;45.110;9.870;2023-04-23T07:08:28;2.30;;;2.10;;
65463;SDS011;52063;45.110;9.870;2023-04-23T07:10:53;2.00;;;1.90;;
65463;SDS011;52063;45.110;9.870;2023-04-23T07:13:19;2.35;;;2.15;;
65463;SDS011;52063;45.110;9.870;2023-04-23T07:15:45;2.30;;;2.10;;
65463;SDS011;52063;45.110;9.870;2023-04-23T07:18:10;2.50;;;2.30;;
65463;SDS011;52063;45.110;9.870;2023-04-23T07:20:36;2.20;;;2.10;;
65463;SDS011;52063;45.110;9.870;2023-04-23T07:23:02;2.00;;;1.90;;
65463;SDS011;52063;45.110;9.870;2023-04-23T07:25:28;2.20;;;2.10;;
65463;SDS011;52063;45.110;9.870;2023-04-23T07:27:54;2.13;;;2.00;;
65463;SDS011;52063;45.110;9.870;2023-04-23T07:30:20;2.37;;;1.77;;
65463;SDS011;52063;45.110;9.870;2023-04-23T07:32:46;2.83;;;2.15;;
65463;SDS011;52063;45.110;9.870;2023-04-23T07:35:12;2.40;;;2.20;;
65463;SDS011;52063;45.110;9.870;2023-04-23T07:37:37;2.13;;;2.03;;
65463;SDS011;52063;45.110;9.870;2023-04-23T07:40:03;2.33;;;2.13;;
65463;SDS011;52063;45.110;9.870;2023-04-23T07:42:30;2.30;;;2.10;;
65463;SDS011;52063;45.110;9.870;2023-04-23T07:44:56;2.03;;;1.93;;
65463;SDS011;52063;45.110;9.870;2023-04-23T07:47:21;2.35;;;2.25;;
65463;SDS011;52063;45.110;9.870;2023-04-23T07:49:47;2.50;;;2.37;;
65463;SDS011;52063;45.110;9.870;2023-04-23T07:52:12;2.23;;;2.03;;
65463;SDS011;52063;45.110;9.870;2023-04-23T07:54:37;2.50;;;2.30;;
65463;SDS011;52063;45.110;9.870;2023-04-23T07:57:03;2.00;;;1.90;;
65463;SDS011;52063;45.110;9.870;2023-04-23T07:59:28;2.33;;;2.17;;
65463;SDS011;52063;45.110;9.870;2023-04-23T08:01:54;2.35;;;2.20;;
65463;SDS011;52063;45.110;9.870;2023-04-23T08:04:19;1.93;;;1.83;;
65463;SDS011;52063;45.110;9.870;2023-04-23T08:06:45;2.33;;;2.13;;
65463;SDS011;52063;45.110;9.870;2023-04-23T08:09:10;8.02;;;6.93;;
65463;SDS011;52063;45.110;9.870;2023-04-23T08:11:36;18.23;;;15.97;;
65463;SDS011;52063;45.110;9.870;2023-04-23T08:14:01;26.90;;;23.37;;
65463;SDS011;52063;45.110;9.870;2023-04-23T08:16:27;28.67;;;23.90;;
65463;SDS011;52063;45.110;9.870;2023-04-23T08:18:52;31.13;;;23.83;;
65463;SDS011;52063;45.110;9.870;2023-04-23T08:21:18;28.43;;;23.13;;
65463;SDS011;52063;45.110;9.870;2023-04-23T08:23:43;28.73;;;24.48;;
65463;SDS011;52063;45.110;9.870;2023-04-23T08:26:09;27.80;;;22.50;;
65463;SDS011;52063;45.110;9.870;2023-04-23T08:28:34;28.17;;;24.07;;
65463;SDS011;52063;45.110;9.870;2023-04-23T08:31:00;30.37;;;24.60;;
65463;SDS011;52063;45.110;9.870;2023-04-23T08:33:25;32.40;;;26.30;;
65463;SDS011;52063;45.110;9.870;2023-04-23T08:35:51;30.07;;;24.43;;
65463;SDS011;52063;45.110;9.870;2023-04-23T08:38:16;27.27;;;24.05;;
65463;SDS011;52063;45.110;9.870;2023-04-23T08:40:42;31.80;;;25.73;;
65463;SDS011;52063;45.110;9.870;2023-04-23T08:43:12;23.27;;;20.55;;
65463;SDS011;52063;45.110;9.870;2023-04-23T08:45:40;29.55;;;24.50;;
65463;SDS011;52063;45.110;9.870;2023-04-23T08:48:13;26.38;;;22.70;;
65463;SDS011;52063;45.110;9.870;2023-04-23T08:50:41;22.13;;;19.70;;
65463;SDS011;52063;45.110;9.870;2023-04-23T08:53:08;27.05;;;22.10;;
65463;SDS011;52063;45.110;9.870;2023-04-23T08:55:33;25.38;;;21.63;;
65463;SDS011;52063;45.110;9.870;2023-04-23T08:58:00;27.60;;;21.77;;
65463;SDS011;52063;45.110;9.870;2023-04-23T09:00:26;28.15;;;23.55;;
65463;SDS011;52063;45.110;9.870;2023-04-23T09:02:52;25.30;;;21.67;;
65463;SDS011;52063;45.110;9.870;2023-04-23T09:05:17;27.38;;;22.05;;
65463;SDS011;52063;45.110;9.870;2023-04-23T09:07:43;28.07;;;23.83;;
65463;SDS011;52063;45.110;9.870;2023-04-23T09:10:09;28.73;;;20.65;;
65463;SDS011;52063;45.110;9.870;2023-04-23T09:12:37;24.92;;;22.23;;
65463;SDS011;52063;45.110;9.870;2023-04-23T09:15:04;23.83;;;20.87;;
65463;SDS011;52063;45.110;9.870;2023-04-23T09:17:35;27.08;;;21.05;;
65463;SDS011;52063;45.110;9.870;2023-04-23T09:20:03;28.70;;;23.25;;
65463;SDS011;52063;45.110;9.870;2023-04-23T09:22:37;28.60;;;23.83;;
65463;SDS011;52063;45.110;9.870;2023-04-23T09:25:12;27.05;;;22.60;;
65463;SDS011;52063;45.110;9.870;2023-04-23T09:27:39;28.70;;;23.53;;
65463;SDS011;52063;45.110;9.870;2023-04-23T09:30:08;27.38;;;23.38;;
65463;SDS011;52063;45.110;9.870;2023-04-23T09:32:36;28.55;;;23.23;;
65463;SDS011;52063;45.110;9.870;2023-04-23T09:35:03;34.20;;;24.63;;
65463;SDS011;52063;45.110;9.870;2023-04-23T09:37:30;26.55;;;23.10;;
65463;SDS011;52063;45.110;9.870;2023-04-23T09:40:00;25.57;;;22.63;;
65463;SDS011;52063;45.110;9.870;2023-04-23T09:42:26;28.55;;;23.80;;
65463;SDS011;52063;45.110;9.870;2023-04-23T09:44:54;28.23;;;23.10;;
65463;SDS011;52063;45.110;9.870;2023-04-23T09:47:24;29.13;;;24.50;;
65463;SDS011;52063;45.110;9.870;2023-04-23T09:49:50;29.07;;;23.67;;
65463;SDS011;52063;45.110;9.870;2023-04-23T09:52:16;27.65;;;23.65;;
65463;SDS011;52063;45.110;9.870;2023-04-23T09:54:42;26.92;;;23.38;;
65463;SDS011;52063;45.110;9.870;2023-04-23T09:57:10;28.13;;;23.55;;
65463;SDS011;52063;45.110;9.870;2023-04-23T09:59:36;27.67;;;22.30;;
65463;SDS011;52063;45.110;9.870;2023-04-23T10:02:02;30.83;;;23.70;;
65463;SDS011;52063;45.110;9.870;2023-04-23T10:04:29;26.13;;;21.47;;
65463;SDS011;52063;45.110;9.870;2023-04-23T10:06:59;27.27;;;20.75;;
65463;SDS011;52063;45.110;9.870;2023-04-23T10:09:26;24.10;;;19.37;;
65463;SDS011;52063;45.110;9.870;2023-04-23T10:11:53;24.98;;;19.98;;
65463;SDS011;52063;45.110;9.870;2023-04-23T10:14:23;26.55;;;19.65;;
65463;SDS011;52063;45.110;9.870;2023-04-23T10:16:50;25.33;;;22.58;;
65463;SDS011;52063;45.110;9.870;2023-04-23T10:19:18;24.45;;;20.00;;
65463;SDS011;52063;45.110;9.870;2023-04-23T10:21:45;21.73;;;18.20;;
65463;SDS011;52063;45.110;9.870;2023-04-23T10:24:11;25.20;;;20.45;;
65463;SDS011;52063;45.110;9.870;2023-04-23T10:26:38;23.80;;;20.02;;
65463;SDS011;52063;45.110;9.870;2023-04-23T10:29:08;22.23;;;18.33;;
65463;SDS011;52063;45.110;9.870;2023-04-23T10:31:38;22.58;;;19.33;;
65463;SDS011;52063;45.110;9.870;2023-04-23T10:34:04;22.70;;;18.90;;
65463;SDS011;52063;45.110;9.870;2023-04-23T10:36:32;19.70;;;15.98;;
65463;SDS011;52063;45.110;9.870;2023-04-23T10:38:57;21.83;;;16.65;;
65463;SDS011;52063;45.110;9.870;2023-04-23T10:41:38;18.60;;;15.68;;
65463;SDS011;52063;45.110;9.870;2023-04-23T10:44:05;22.93;;;17.13;;
65463;SDS011;52063;45.110;9.870;2023-04-23T10:46:31;22.38;;;18.70;;
65463;SDS011;52063;45.110;9.870;2023-04-23T10:49:10;17.50;;;15.02;;
65463;SDS011;52063;45.110;9.870;2023-04-23T10:51:39;20.55;;;16.83;;
65463;SDS011;52063;45.110;9.870;2023-04-23T10:54:07;21.13;;;17.23;;
65463;SDS011;52063;45.110;9.870;2023-04-23T10:56:34;21.30;;;17.90;;
65463;SDS011;52063;45.110;9.870;2023-04-23T10:59:02;21.00;;;16.40;;
65463;SDS011;52063;45.110;9.870;2023-04-23T11:01:30;25.50;;;18.27;;
65463;SDS011;52063;45.110;9.870;2023-04-23T11:03:56;21.73;;;18.27;;
65463;SDS011;52063;45.110;9.870;2023-04-23T11:09:31;21.10;;;17.00;;
65463;SDS011;52063;45.110;9.870;2023-04-23T11:12:10;19.50;;;16.73;;
65463;SDS011;52063;45.110;9.870;2023-04-23T11:14:36;20.90;;;16.08;;
65463;SDS011;52063;45.110;9.870;2023-04-23T11:17:06;22.98;;;17.38;;
65463;SDS011;52063;45.110;9.870;2023-04-23T11:19:41;17.80;;;14.77;;
65463;SDS011;52063;45.110;9.870;2023-04-23T11:22:33;18.88;;;15.75;;
65463;SDS011;52063;45.110;9.870;2023-04-23T11:25:00;20.00;;;15.73;;
65463;SDS011;52063;45.110;9.870;2023-04-23T11:27:25;19.60;;;16.00;;
65463;SDS011;52063;45.110;9.870;2023-04-23T11:29:53;21.77;;;17.80;;
65463;SDS011;52063;45.110;9.870;2023-04-23T11:32:19;30.05;;;19.08;;
65463;SDS011;52063;45.110;9.870;2023-04-23T11:34:46;18.98;;;15.10;;
65463;SDS011;52063;45.110;9.870;2023-04-23T11:37:14;18.33;;;16.13;;
65463;SDS011;52063;45.110;9.870;2023-04-23T11:39:40;17.90;;;15.85;;
65463;SDS011;52063;45.110;9.870;2023-04-23T11:42:09;20.98;;;16.40;;
65463;SDS011;52063;45.110;9.870;2023-04-23T11:44:39;18.30;;;15.32;;
65463;SDS011;52063;45.110;9.870;2023-04-23T11:47:08;21.25;;;16.45;;
65463;SDS011;52063;45.110;9.870;2023-04-23T11:49:44;21.47;;;16.90;;
65463;SDS011;52063;45.110;9.870;2023-04-23T11:52:10;20.27;;;16.45;;
65463;SDS011;52063;45.110;9.870;2023-04-23T11:54:36;18.20;;;15.32;;
65463;SDS011;52063;45.110;9.870;2023-04-23T11:57:04;18.55;;;16.42;;
65463;SDS011;52063;45.110;9.870;2023-04-23T11:59:30;23.30;;;17.27;;
65463;SDS011;52063;45.110;9.870;2023-04-23T12:01:56;19.43;;;16.37;;
65463;SDS011;52063;45.110;9.870;2023-04-23T12:04:26;20.08;;;16.75;;
65463;SDS011;52063;45.110;9.870;2023-04-23T12:06:53;20.85;;;17.40;;
65463;SDS011;52063;45.110;9.870;2023-04-23T12:09:20;20.10;;;15.70;;
65463;SDS011;52063;45.110;9.870;2023-04-23T12:11:46;20.23;;;16.13;;
65463;SDS011;52063;45.110;9.870;2023-04-23T12:14:14;20.30;;;16.67;;
65463;SDS011;52063;45.110;9.870;2023-04-23T12:16:44;18.67;;;15.63;;
65463;SDS011;52063;45.110;9.870;2023-04-23T12:21:49;17.95;;;15.13;;
65463;SDS011;52063;45.110;9.870;2023-04-23T12:24:19;19.85;;;15.38;;
65463;SDS011;52063;45.110;9.870;2023-04-23T12:26:48;17.60;;;13.95;;
65463;SDS011;52063;45.110;9.870;2023-04-23T12:29:18;17.87;;;14.83;;
65463;SDS011;52063;45.110;9.870;2023-04-23T12:31:45;18.67;;;14.15;;
65463;SDS011;52063;45.110;9.870;2023-04-23T12:34:11;17.88;;;14.00;;
65463;SDS011;52063;45.110;9.870;2023-04-23T12:36:42;19.30;;;12.90;;
65463;SDS011;52063;45.110;9.870;2023-04-23T12:41:44;15.63;;;11.80;;
65463;SDS011;52063;45.110;9.870;2023-04-23T12:44:09;15.07;;;11.43;;
65463;SDS011;52063;45.110;9.870;2023-04-23T12:46:35;12.90;;;11.13;;
65463;SDS011;52063;45.110;9.870;2023-04-23T12:49:00;14.13;;;11.00;;
65463;SDS011;52063;45.110;9.870;2023-04-23T12:51:26;11.75;;;10.05;;
65463;SDS011;52063;45.110;9.870;2023-04-23T12:53:52;13.90;;;10.77;;
65463;SDS011;52063;45.110;9.870;2023-04-23T12:56:18;12.13;;;9.30;;
65463;SDS011;52063;45.110;9.870;2023-04-23T12:58:44;12.80;;;8.70;;
65463;SDS011;52063;45.110;9.870;2023-04-23T13:01:10;10.43;;;8.70;;
65463;SDS011;52063;45.110;9.870;2023-04-23T13:03:36;10.90;;;9.05;;
65463;SDS011;52063;45.110;9.870;2023-04-23T13:06:02;10.97;;;8.70;;
65463;SDS011;52063;45.110;9.870;2023-04-23T13:08:28;12.43;;;8.45;;
65463;SDS011;52063;45.110;9.870;2023-04-23T13:10:53;10.40;;;8.10;;
65463;SDS011;52063;45.110;9.870;2023-04-23T13:13:19;11.17;;;9.53;;
65463;SDS011;52063;45.110;9.870;2023-04-23T13:15:44;11.55;;;10.35;;
65463;SDS011;52063;45.110;9.870;2023-04-23T13:18:10;11.90;;;9.57;;
65463;SDS011;52063;45.110;9.870;2023-04-23T13:20:36;13.68;;;10.40;;
65463;SDS011;52063;45.110;9.870;2023-04-23T13:23:02;15.90;;;10.27;;
65463;SDS011;52063;45.110;9.870;2023-04-23T13:25:28;11.98;;;9.98;;
65463;SDS011;52063;45.110;9.870;2023-04-23T13:27:54;10.87;;;9.40;;
65463;SDS011;52063;45.110;9.870;2023-04-23T13:30:21;11.80;;;8.93;;
65463;SDS011;52063;45.110;9.870;2023-04-23T13:32:47;12.25;;;9.80;;
65463;SDS011;52063;45.110;9.870;2023-04-23T13:35:13;11.07;;;9.38;;
65463;SDS011;52063;45.110;9.870;2023-04-23T13:37:41;13.48;;;9.93;;
65463;SDS011;52063;45.110;9.870;2023-04-23T13:40:07;13.73;;;10.43;;
65463;SDS011;52063;45.110;9.870;2023-04-23T13:42:34;11.13;;;8.88;;
65463;SDS011;52063;45.110;9.870;2023-04-23T13:45:00;13.13;;;10.48;;
65463;SDS011;52063;45.110;9.870;2023-04-23T13:47:29;14.65;;;10.20;;
65463;SDS011;52063;45.110;9.870;2023-04-23T13:49:58;12.10;;;9.80;;
65463;SDS011;52063;45.110;9.870;2023-04-23T13:52:24;14.50;;;9.40;;
65463;SDS011;52063;45.110;9.870;2023-04-23T13:54:51;12.57;;;10.30;;
65463;SDS011;52063;45.110;9.870;2023-04-23T13:57:19;13.90;;;9.27;;
65463;SDS011;52063;45.110;9.870;2023-04-23T13:59:45;11.23;;;8.23;;
65463;SDS011;52063;45.110;9.870;2023-04-23T14:02:11;11.80;;;9.18;;
65463;SDS011;52063;45.110;9.870;2023-04-23T14:04:37;8.90;;;8.00;;
65463;SDS011;52063;45.110;9.870;2023-04-23T14:07:04;11.55;;;8.68;;
65463;SDS011;52063;45.110;9.870;2023-04-23T14:09:30;9.75;;;8.18;;
65463;SDS011;52063;45.110;9.870;2023-04-23T14:11:56;9.48;;;7.93;;
65463;SDS011;52063;45.110;9.870;2023-04-23T14:14:23;10.50;;;7.75;;
65463;SDS011;52063;45.110;9.870;2023-04-23T14:16:49;10.43;;;7.80;;
65463;SDS011;52063;45.110;9.870;2023-04-23T14:19:15;12.00;;;8.35;;
65463;SDS011;52063;45.110;9.870;2023-04-23T14:21:42;8.88;;;7.90;;
65463;SDS011;52063;45.110;9.870;2023-04-23T14:24:15;10.70;;;7.63;;
65463;SDS011;52063;45.110;9.870;2023-04-23T14:26:43;9.57;;;7.40;;
65463;SDS011;52063;45.110;9.870;2023-04-23T14:29:29;9.90;;;7.43;;
65463;SDS011;52063;45.110;9.870;2023-04-23T14:32:00;8.10;;;7.30;;
65463;SDS011;52063;45.110;9.870;2023-04-23T14:34:26;7.65;;;6.85;;
65463;SDS011;52063;45.110;9.870;2023-04-23T14:36:52;10.57;;;7.72;;
65463;SDS011;52063;45.110;9.870;2023-04-23T14:39:18;8.70;;;7.70;;
65463;SDS011;52063;45.110;9.870;2023-04-23T14:41:46;8.77;;;7.60;;
65463;SDS011;52063;45.110;9.870;2023-04-23T14:44:12;8.77;;;7.40;;